sensor_id;sensor_type;location;lat;lon;timestamp;P1;durP1;ratioP1;P2;durP2;ratioP2
66327;SDS011;53133;52.862;6.602;2023-07-13T00:02:21;12.48;;;2.90;;
66327;SDS011;53133;52.862;6.602;2023-07-13T00:04:47;8.73;;;2.70;;
66327;SDS011;53133;52.862;6.602;2023-07-13T00:07:12;7.25;;;2.67;;
66327;SDS011;53133;52.862;6.602;2023-07-13T00:09:39;11.30;;;2.67;;
66327;SDS011;53133;52.862;6.602;2023-07-13T00:12:20;12.48;;;3.45;;
66327;SDS011;53133;52.862;6.602;2023-07-13T00:14:55;11.38;;;2.75;;
66327;SDS011;53133;52.862;6.602;2023-07-13T00:17:23;11.20;;;2.85;;
66327;SDS011;53133;52.862;6.602;2023-07-13T00:19:49;9.18;;;2.58;;
66327;SDS011;53133;52.862;6.602;2023-07-13T00:22:14;10.75;;;3.30;;
66327;SDS011;53133;52.862;6.602;2023-07-13T00:24:40;15.73;;;3.30;;
66327;SDS011;53133;52.862;6.602;2023-07-13T00:27:09;9.70;;;2.67;;
66327;SDS011;53133;52.862;6.602;2023-07-13T00:29:35;9.75;;;2.75;;
66327;SDS011;53133;52.862;6.602;2023-07-13T00:32:02;8.00;;;2.55;;
66327;SDS011;53133;52.862;6.602;2023-07-13T00:34:28;10.68;;;2.63;;
66327;SDS011;53133;52.862;6.602;2023-07-13T00:36:54;7.38;;;2.78;;
66327;SDS011;53133;52.862;6.602;2023-07-13T00:39:20;10.95;;;2.95;;
66327;SDS011;53133;52.862;6.602;2023-07-13T00:41:46;6.82;;;2.72;;
66327;SDS011;53133;52.862;6.602;2023-07-13T00:44:15;9.50;;;2.80;;
66327;SDS011;53133;52.862;6.602;2023-07-13T00:46:42;10.90;;;2.90;;
66327;SDS011;53133;52.862;6.602;2023-07-13T00:49:09;9.43;;;2.92;;
66327;SDS011;53133;52.862;6.602;2023-07-13T00:54:13;10.35;;;3.00;;
66327;SDS011;53133;52.862;6.602;2023-07-13T00:56:43;6.30;;;2.78;;
66327;SDS011;53133;52.862;6.602;2023-07-13T00:59:11;12.90;;;2.75;;
66327;SDS011;53133;52.862;6.602;2023-07-13T01:01:38;10.63;;;3.28;;
66327;SDS011;53133;52.862;6.602;2023-07-13T01:04:04;10.60;;;3.10;;
66327;SDS011;53133;52.862;6.602;2023-07-13T01:06:33;8.02;;;2.80;;
66327;SDS011;53133;52.862;6.602;2023-07-13T01:09:00;8.20;;;2.92;;
66327;SDS011;53133;52.862;6.602;2023-07-13T01:11:26;8.55;;;2.90;;
66327;SDS011;53133;52.862;6.602;2023-07-13T01:13:52;11.52;;;2.75;;
66327;SDS011;53133;52.862;6.602;2023-07-13T01:16:26;10.88;;;3.17;;
66327;SDS011;53133;52.862;6.602;2023-07-13T01:18:55;10.70;;;2.97;;
66327;SDS011;53133;52.862;6.602;2023-07-13T01:21:24;10.80;;;2.65;;
66327;SDS011;53133;52.862;6.602;2023-07-13T01:23:51;9.90;;;3.10;;
66327;SDS011;53133;52.862;6.602;2023-07-13T01:26:17;11.40;;;3.33;;
66327;SDS011;53133;52.862;6.602;2023-07-13T01:28:43;9.23;;;3.13;;
66327;SDS011;53133;52.862;6.602;2023-07-13T01:31:09;9.63;;;2.88;;
66327;SDS011;53133;52.862;6.602;2023-07-13T01:33:37;11.90;;;3.10;;
66327;SDS011;53133;52.862;6.602;2023-07-13T01:36:06;8.43;;;3.05;;
66327;SDS011;53133;52.862;6.602;2023-07-13T01:38:34;10.75;;;3.40;;
66327;SDS011;53133;52.862;6.602;2023-07-13T01:41:00;8.98;;;2.92;;
66327;SDS011;53133;52.862;6.602;2023-07-13T01:43:26;12.88;;;2.80;;
66327;SDS011;53133;52.862;6.602;2023-07-13T01:45:52;10.18;;;3.03;;
66327;SDS011;53133;52.862;6.602;2023-07-13T01:48:18;8.35;;;2.95;;
66327;SDS011;53133;52.862;6.602;2023-07-13T01:50:45;9.52;;;3.28;;
66327;SDS011;53133;52.862;6.602;2023-07-13T01:53:12;12.82;;;2.97;;
66327;SDS011;53133;52.862;6.602;2023-07-13T01:55:38;9.27;;;2.92;;
66327;SDS011;53133;52.862;6.602;2023-07-13T01:58:04;10.13;;;3.13;;
66327;SDS011;53133;52.862;6.602;2023-07-13T02:00:30;9.35;;;3.00;;
66327;SDS011;53133;52.862;6.602;2023-07-13T02:02:56;8.70;;;3.05;;
66327;SDS011;53133;52.862;6.602;2023-07-13T02:05:22;11.10;;;3.17;;
66327;SDS011;53133;52.862;6.602;2023-07-13T02:07:48;10.18;;;3.38;;
66327;SDS011;53133;52.862;6.602;2023-07-13T02:10:14;13.32;;;3.40;;
66327;SDS011;53133;52.862;6.602;2023-07-13T02:12:40;11.90;;;3.28;;
66327;SDS011;53133;52.862;6.602;2023-07-13T02:15:07;12.20;;;3.58;;
66327;SDS011;53133;52.862;6.602;2023-07-13T02:17:34;15.10;;;3.25;;
66327;SDS011;53133;52.862;6.602;2023-07-13T02:20:00;9.60;;;3.28;;
66327;SDS011;53133;52.862;6.602;2023-07-13T02:22:27;9.85;;;3.05;;
66327;SDS011;53133;52.862;6.602;2023-07-13T02:24:53;10.02;;;3.33;;
66327;SDS011;53133;52.862;6.602;2023-07-13T02:27:19;13.20;;;3.25;;
66327;SDS011;53133;52.862;6.602;2023-07-13T02:29:45;13.35;;;3.60;;
66327;SDS011;53133;52.862;6.602;2023-07-13T02:32:10;11.35;;;3.45;;
66327;SDS011;53133;52.862;6.602;2023-07-13T02:34:36;14.45;;;2.90;;
66327;SDS011;53133;52.862;6.602;2023-07-13T02:37:02;12.43;;;2.95;;
66327;SDS011;53133;52.862;6.602;2023-07-13T02:39:28;12.02;;;3.38;;
66327;SDS011;53133;52.862;6.602;2023-07-13T02:41:54;14.80;;;3.60;;
66327;SDS011;53133;52.862;6.602;2023-07-13T02:44:19;11.55;;;3.30;;
66327;SDS011;53133;52.862;6.602;2023-07-13T02:46:45;11.23;;;3.25;;
66327;SDS011;53133;52.862;6.602;2023-07-13T02:49:11;8.57;;;2.92;;
66327;SDS011;53133;52.862;6.602;2023-07-13T02:51:36;9.30;;;3.15;;
66327;SDS011;53133;52.862;6.602;2023-07-13T02:54:03;7.68;;;3.10;;
66327;SDS011;53133;52.862;6.602;2023-07-13T02:56:29;13.52;;;3.33;;
66327;SDS011;53133;52.862;6.602;2023-07-13T02:58:56;9.57;;;3.08;;
66327;SDS011;53133;52.862;6.602;2023-07-13T03:01:22;9.85;;;3.10;;
66327;SDS011;53133;52.862;6.602;2023-07-13T03:03:49;8.80;;;3.00;;
66327;SDS011;53133;52.862;6.602;2023-07-13T03:06:15;8.13;;;3.40;;
66327;SDS011;53133;52.862;6.602;2023-07-13T03:08:41;12.23;;;3.25;;
66327;SDS011;53133;52.862;6.602;2023-07-13T03:11:12;10.90;;;3.30;;
66327;SDS011;53133;52.862;6.602;2023-07-13T03:13:40;11.55;;;3.22;;
66327;SDS011;53133;52.862;6.602;2023-07-13T03:16:07;8.07;;;3.20;;
66327;SDS011;53133;52.862;6.602;2023-07-13T03:18:34;15.43;;;3.85;;
66327;SDS011;53133;52.862;6.602;2023-07-13T03:21:01;12.10;;;3.20;;
66327;SDS011;53133;52.862;6.602;2023-07-13T03:23:26;8.88;;;3.35;;
66327;SDS011;53133;52.862;6.602;2023-07-13T03:26:10;11.82;;;3.72;;
66327;SDS011;53133;52.862;6.602;2023-07-13T03:28:45;17.45;;;3.22;;
66327;SDS011;53133;52.862;6.602;2023-07-13T03:31:18;10.70;;;3.20;;
66327;SDS011;53133;52.862;6.602;2023-07-13T03:33:46;11.07;;;3.47;;
66327;SDS011;53133;52.862;6.602;2023-07-13T03:36:15;13.65;;;3.90;;
66327;SDS011;53133;52.862;6.602;2023-07-13T03:38:47;12.40;;;3.47;;
66327;SDS011;53133;52.862;6.602;2023-07-13T03:41:14;10.18;;;3.30;;
66327;SDS011;53133;52.862;6.602;2023-07-13T03:43:40;12.25;;;3.67;;
66327;SDS011;53133;52.862;6.602;2023-07-13T03:46:06;8.55;;;3.60;;
66327;SDS011;53133;52.862;6.602;2023-07-13T03:48:32;10.38;;;3.47;;
66327;SDS011;53133;52.862;6.602;2023-07-13T03:50:57;12.55;;;3.78;;
66327;SDS011;53133;52.862;6.602;2023-07-13T03:53:23;12.10;;;3.38;;
66327;SDS011;53133;52.862;6.602;2023-07-13T03:55:49;9.48;;;3.50;;
66327;SDS011;53133;52.862;6.602;2023-07-13T04:00:53;9.45;;;3.28;;
66327;SDS011;53133;52.862;6.602;2023-07-13T04:03:19;11.70;;;3.83;;
66327;SDS011;53133;52.862;6.602;2023-07-13T04:05:45;12.18;;;3.90;;
66327;SDS011;53133;52.862;6.602;2023-07-13T04:08:11;11.05;;;4.43;;
66327;SDS011;53133;52.862;6.602;2023-07-13T04:10:37;11.65;;;3.70;;
66327;SDS011;53133;52.862;6.602;2023-07-13T04:13:03;12.00;;;3.97;;
66327;SDS011;53133;52.862;6.602;2023-07-13T04:15:30;17.55;;;4.32;;
66327;SDS011;53133;52.862;6.602;2023-07-13T04:17:57;14.63;;;3.83;;
66327;SDS011;53133;52.862;6.602;2023-07-13T04:20:24;12.63;;;3.80;;
66327;SDS011;53133;52.862;6.602;2023-07-13T04:22:50;11.27;;;3.92;;
66327;SDS011;53133;52.862;6.602;2023-07-13T04:25:18;10.63;;;3.70;;
66327;SDS011;53133;52.862;6.602;2023-07-13T04:27:44;12.45;;;3.97;;
66327;SDS011;53133;52.862;6.602;2023-07-13T04:30:09;13.15;;;3.78;;
66327;SDS011;53133;52.862;6.602;2023-07-13T04:32:35;16.25;;;3.90;;
66327;SDS011;53133;52.862;6.602;2023-07-13T04:35:01;13.10;;;3.92;;
66327;SDS011;53133;52.862;6.602;2023-07-13T04:37:26;15.52;;;4.50;;
66327;SDS011;53133;52.862;6.602;2023-07-13T04:39:52;10.20;;;4.18;;
66327;SDS011;53133;52.862;6.602;2023-07-13T04:42:18;8.95;;;4.35;;
66327;SDS011;53133;52.862;6.602;2023-07-13T04:44:47;10.68;;;3.60;;
66327;SDS011;53133;52.862;6.602;2023-07-13T04:47:14;16.48;;;4.97;;
66327;SDS011;53133;52.862;6.602;2023-07-13T04:49:39;13.25;;;4.03;;
66327;SDS011;53133;52.862;6.602;2023-07-13T04:52:05;17.73;;;4.60;;
66327;SDS011;53133;52.862;6.602;2023-07-13T04:54:32;12.95;;;4.45;;
66327;SDS011;53133;52.862;6.602;2023-07-13T04:56:59;11.40;;;4.18;;
66327;SDS011;53133;52.862;6.602;2023-07-13T04:59:25;9.85;;;4.05;;
66327;SDS011;53133;52.862;6.602;2023-07-13T05:01:50;11.02;;;3.80;;
66327;SDS011;53133;52.862;6.602;2023-07-13T05:04:16;13.25;;;3.90;;
66327;SDS011;53133;52.862;6.602;2023-07-13T05:06:42;11.55;;;3.90;;
66327;SDS011;53133;52.862;6.602;2023-07-13T05:09:08;14.07;;;4.13;;
66327;SDS011;53133;52.862;6.602;2023-07-13T05:11:34;11.50;;;4.20;;
66327;SDS011;53133;52.862;6.602;2023-07-13T05:14:00;12.52;;;4.00;;
66327;SDS011;53133;52.862;6.602;2023-07-13T05:16:26;10.70;;;3.92;;
66327;SDS011;53133;52.862;6.602;2023-07-13T05:18:52;11.95;;;4.18;;
66327;SDS011;53133;52.862;6.602;2023-07-13T05:21:19;9.70;;;3.78;;
66327;SDS011;53133;52.862;6.602;2023-07-13T05:23:45;13.43;;;4.35;;
66327;SDS011;53133;52.862;6.602;2023-07-13T05:26:11;15.85;;;3.83;;
66327;SDS011;53133;52.862;6.602;2023-07-13T05:28:37;9.23;;;3.42;;
66327;SDS011;53133;52.862;6.602;2023-07-13T05:31:03;10.77;;;4.00;;
66327;SDS011;53133;52.862;6.602;2023-07-13T05:33:29;19.58;;;4.97;;
66327;SDS011;53133;52.862;6.602;2023-07-13T05:35:55;12.85;;;4.43;;
66327;SDS011;53133;52.862;6.602;2023-07-13T05:38:21;15.02;;;3.80;;
66327;SDS011;53133;52.862;6.602;2023-07-13T05:40:47;11.68;;;4.18;;
66327;SDS011;53133;52.862;6.602;2023-07-13T05:43:13;17.00;;;4.38;;
66327;SDS011;53133;52.862;6.602;2023-07-13T05:45:39;9.45;;;3.72;;
66327;SDS011;53133;52.862;6.602;2023-07-13T05:48:05;10.82;;;4.07;;
66327;SDS011;53133;52.862;6.602;2023-07-13T05:50:31;15.90;;;4.38;;
66327;SDS011;53133;52.862;6.602;2023-07-13T05:52:57;13.85;;;4.35;;
66327;SDS011;53133;52.862;6.602;2023-07-13T05:55:23;15.60;;;4.05;;
66327;SDS011;53133;52.862;6.602;2023-07-13T05:57:49;9.60;;;4.45;;
66327;SDS011;53133;52.862;6.602;2023-07-13T06:00:14;10.65;;;4.43;;
66327;SDS011;53133;52.862;6.602;2023-07-13T06:02:41;10.10;;;4.30;;
66327;SDS011;53133;52.862;6.602;2023-07-13T06:05:07;11.93;;;4.47;;
66327;SDS011;53133;52.862;6.602;2023-07-13T06:07:33;10.82;;;4.00;;
66327;SDS011;53133;52.862;6.602;2023-07-13T06:09:58;13.18;;;4.22;;
66327;SDS011;53133;52.862;6.602;2023-07-13T06:12:24;8.93;;;4.10;;
66327;SDS011;53133;52.862;6.602;2023-07-13T06:14:50;9.05;;;3.67;;
66327;SDS011;53133;52.862;6.602;2023-07-13T06:17:16;11.02;;;4.10;;
66327;SDS011;53133;52.862;6.602;2023-07-13T06:19:42;14.65;;;4.50;;
66327;SDS011;53133;52.862;6.602;2023-07-13T06:22:07;11.77;;;3.97;;
66327;SDS011;53133;52.862;6.602;2023-07-13T06:24:33;11.05;;;3.83;;
66327;SDS011;53133;52.862;6.602;2023-07-13T06:26:59;12.82;;;4.43;;
66327;SDS011;53133;52.862;6.602;2023-07-13T06:29:24;11.45;;;4.07;;
66327;SDS011;53133;52.862;6.602;2023-07-13T06:31:50;15.50;;;4.40;;
66327;SDS011;53133;52.862;6.602;2023-07-13T06:34:16;13.95;;;4.13;;
66327;SDS011;53133;52.862;6.602;2023-07-13T06:36:41;10.38;;;3.78;;
66327;SDS011;53133;52.862;6.602;2023-07-13T06:39:07;9.85;;;3.70;;
66327;SDS011;53133;52.862;6.602;2023-07-13T06:41:33;9.05;;;3.88;;
66327;SDS011;53133;52.862;6.602;2023-07-13T06:43:59;8.98;;;4.57;;
66327;SDS011;53133;52.862;6.602;2023-07-13T06:46:25;12.32;;;3.90;;
66327;SDS011;53133;52.862;6.602;2023-07-13T06:48:53;8.55;;;3.65;;
66327;SDS011;53133;52.862;6.602;2023-07-13T06:51:18;12.98;;;4.07;;
66327;SDS011;53133;52.862;6.602;2023-07-13T06:53:44;16.63;;;4.70;;
66327;SDS011;53133;52.862;6.602;2023-07-13T06:56:10;12.80;;;4.57;;
66327;SDS011;53133;52.862;6.602;2023-07-13T06:58:36;9.07;;;3.85;;
66327;SDS011;53133;52.862;6.602;2023-07-13T07:01:02;8.50;;;3.72;;
66327;SDS011;53133;52.862;6.602;2023-07-13T07:03:29;10.73;;;4.60;;
66327;SDS011;53133;52.862;6.602;2023-07-13T07:05:59;13.75;;;4.38;;
66327;SDS011;53133;52.862;6.602;2023-07-13T07:08:27;9.00;;;4.07;;
66327;SDS011;53133;52.862;6.602;2023-07-13T07:10:52;9.75;;;4.25;;
66327;SDS011;53133;52.862;6.602;2023-07-13T07:13:19;11.90;;;4.15;;
66327;SDS011;53133;52.862;6.602;2023-07-13T07:15:45;9.23;;;4.28;;
66327;SDS011;53133;52.862;6.602;2023-07-13T07:18:11;12.13;;;3.92;;
66327;SDS011;53133;52.862;6.602;2023-07-13T07:20:36;11.70;;;3.88;;
66327;SDS011;53133;52.862;6.602;2023-07-13T07:23:02;11.73;;;3.90;;
66327;SDS011;53133;52.862;6.602;2023-07-13T07:25:28;10.20;;;4.53;;
66327;SDS011;53133;52.862;6.602;2023-07-13T07:27:57;11.27;;;3.88;;
66327;SDS011;53133;52.862;6.602;2023-07-13T07:30:23;11.68;;;4.38;;
66327;SDS011;53133;52.862;6.602;2023-07-13T07:32:48;10.93;;;3.70;;
66327;SDS011;53133;52.862;6.602;2023-07-13T07:35:14;12.52;;;4.70;;
66327;SDS011;53133;52.862;6.602;2023-07-13T07:37:40;10.30;;;4.40;;
66327;SDS011;53133;52.862;6.602;2023-07-13T07:40:06;10.13;;;4.22;;
66327;SDS011;53133;52.862;6.602;2023-07-13T07:42:33;10.35;;;4.43;;
66327;SDS011;53133;52.862;6.602;2023-07-13T07:44:59;9.32;;;4.03;;
66327;SDS011;53133;52.862;6.602;2023-07-13T07:47:26;11.13;;;4.60;;
66327;SDS011;53133;52.862;6.602;2023-07-13T07:49:52;9.18;;;4.45;;
66327;SDS011;53133;52.862;6.602;2023-07-13T07:52:18;12.63;;;4.85;;
66327;SDS011;53133;52.862;6.602;2023-07-13T07:54:43;13.38;;;4.75;;
66327;SDS011;53133;52.862;6.602;2023-07-13T07:57:09;13.32;;;4.45;;
66327;SDS011;53133;52.862;6.602;2023-07-13T07:59:36;12.07;;;4.18;;
66327;SDS011;53133;52.862;6.602;2023-07-13T08:02:02;9.73;;;4.35;;
66327;SDS011;53133;52.862;6.602;2023-07-13T08:04:28;10.23;;;3.72;;
66327;SDS011;53133;52.862;6.602;2023-07-13T08:06:53;10.73;;;4.88;;
66327;SDS011;53133;52.862;6.602;2023-07-13T08:09:21;12.52;;;4.20;;
66327;SDS011;53133;52.862;6.602;2023-07-13T08:11:47;12.20;;;4.55;;
66327;SDS011;53133;52.862;6.602;2023-07-13T08:14:13;13.90;;;4.65;;
66327;SDS011;53133;52.862;6.602;2023-07-13T08:16:39;11.00;;;4.40;;
66327;SDS011;53133;52.862;6.602;2023-07-13T08:19:05;10.90;;;4.72;;
66327;SDS011;53133;52.862;6.602;2023-07-13T08:21:31;12.27;;;4.72;;
66327;SDS011;53133;52.862;6.602;2023-07-13T08:23:57;13.75;;;5.20;;
66327;SDS011;53133;52.862;6.602;2023-07-13T08:26:23;11.10;;;5.00;;
66327;SDS011;53133;52.862;6.602;2023-07-13T08:28:48;13.43;;;5.40;;
66327;SDS011;53133;52.862;6.602;2023-07-13T08:31:14;13.32;;;5.93;;
66327;SDS011;53133;52.862;6.602;2023-07-13T08:33:40;11.57;;;5.95;;
66327;SDS011;53133;52.862;6.602;2023-07-13T08:36:06;20.02;;;6.22;;
66327;SDS011;53133;52.862;6.602;2023-07-13T08:38:32;13.40;;;5.82;;
66327;SDS011;53133;52.862;6.602;2023-07-13T08:40:58;11.77;;;4.68;;
66327;SDS011;53133;52.862;6.602;2023-07-13T08:43:35;7.85;;;3.90;;
66327;SDS011;53133;52.862;6.602;2023-07-13T08:46:08;8.80;;;4.35;;
66327;SDS011;53133;52.862;6.602;2023-07-13T08:48:57;11.07;;;4.25;;
66327;SDS011;53133;52.862;6.602;2023-07-13T08:51:29;9.55;;;4.47;;
66327;SDS011;53133;52.862;6.602;2023-07-13T08:54:03;10.52;;;4.70;;
66327;SDS011;53133;52.862;6.602;2023-07-13T08:56:36;10.68;;;5.60;;
66327;SDS011;53133;52.862;6.602;2023-07-13T08:59:12;12.88;;;5.22;;
66327;SDS011;53133;52.862;6.602;2023-07-13T09:04:45;10.15;;;5.40;;
66327;SDS011;53133;52.862;6.602;2023-07-13T09:17:59;12.30;;;5.82;;
66327;SDS011;53133;52.862;6.602;2023-07-13T09:20:42;12.18;;;5.88;;
66327;SDS011;53133;52.862;6.602;2023-07-13T09:23:18;15.95;;;6.45;;
66327;SDS011;53133;52.862;6.602;2023-07-13T09:25:48;10.30;;;6.60;;
66327;SDS011;53133;52.862;6.602;2023-07-13T09:28:26;10.32;;;5.15;;
66327;SDS011;53133;52.862;6.602;2023-07-13T09:31:01;9.38;;;4.18;;
66327;SDS011;53133;52.862;6.602;2023-07-13T09:33:31;6.18;;;2.88;;
66327;SDS011;53133;52.862;6.602;2023-07-13T09:35:58;5.88;;;2.85;;
66327;SDS011;53133;52.862;6.602;2023-07-13T09:38:24;5.20;;;2.30;;
66327;SDS011;53133;52.862;6.602;2023-07-13T09:46:52;3.22;;;2.60;;
66327;SDS011;53133;52.862;6.602;2023-07-13T09:49:22;4.50;;;2.78;;
66327;SDS011;53133;52.862;6.602;2023-07-13T09:52:03;3.42;;;3.08;;
66327;SDS011;53133;52.862;6.602;2023-07-13T09:54:33;5.80;;;2.90;;
66327;SDS011;53133;52.862;6.602;2023-07-13T09:57:01;4.07;;;3.22;;
66327;SDS011;53133;52.862;6.602;2023-07-13T09:59:33;5.10;;;3.30;;
66327;SDS011;53133;52.862;6.602;2023-07-13T10:02:01;3.60;;;2.83;;
66327;SDS011;53133;52.862;6.602;2023-07-13T10:04:32;3.67;;;2.78;;
66327;SDS011;53133;52.862;6.602;2023-07-13T10:07:11;3.10;;;2.80;;
66327;SDS011;53133;52.862;6.602;2023-07-13T10:09:41;2.83;;;2.53;;
66327;SDS011;53133;52.862;6.602;2023-07-13T10:12:15;3.97;;;2.70;;
66327;SDS011;53133;52.862;6.602;2023-07-13T10:14:42;5.00;;;3.00;;
66327;SDS011;53133;52.862;6.602;2023-07-13T10:17:10;6.30;;;3.22;;
66327;SDS011;53133;52.862;6.602;2023-07-13T10:19:39;4.45;;;3.25;;
66327;SDS011;53133;52.862;6.602;2023-07-13T10:25:17;7.38;;;4.40;;
66327;SDS011;53133;52.862;6.602;2023-07-13T10:27:45;6.25;;;4.20;;
66327;SDS011;53133;52.862;6.602;2023-07-13T10:32:45;5.97;;;4.78;;
66327;SDS011;53133;52.862;6.602;2023-07-13T10:35:12;8.32;;;5.55;;
66327;SDS011;53133;52.862;6.602;2023-07-13T10:37:54;9.18;;;5.97;;
66327;SDS011;53133;52.862;6.602;2023-07-13T10:40:36;7.45;;;5.60;;
66327;SDS011;53133;52.862;6.602;2023-07-13T10:43:17;6.95;;;5.70;;
66327;SDS011;53133;52.862;6.602;2023-07-13T10:45:52;11.02;;;6.05;;
66327;SDS011;53133;52.862;6.602;2023-07-13T10:48:19;14.48;;;6.57;;
66327;SDS011;53133;52.862;6.602;2023-07-13T10:50:49;10.15;;;6.07;;
66327;SDS011;53133;52.862;6.602;2023-07-13T10:55:59;11.38;;;6.28;;
66327;SDS011;53133;52.862;6.602;2023-07-13T11:01:51;8.43;;;6.00;;
66327;SDS011;53133;52.862;6.602;2023-07-13T11:04:21;9.68;;;5.45;;
66327;SDS011;53133;52.862;6.602;2023-07-13T11:06:50;11.18;;;5.80;;
66327;SDS011;53133;52.862;6.602;2023-07-13T11:09:37;9.05;;;6.65;;
66327;SDS011;53133;52.862;6.602;2023-07-13T11:12:27;9.80;;;6.50;;
66327;SDS011;53133;52.862;6.602;2023-07-13T11:25:25;10.13;;;5.38;;
66327;SDS011;53133;52.862;6.602;2023-07-13T11:38:45;8.32;;;5.00;;
66327;SDS011;53133;52.862;6.602;2023-07-13T11:41:53;8.40;;;4.88;;
66327;SDS011;53133;52.862;6.602;2023-07-13T11:44:29;7.75;;;4.47;;
66327;SDS011;53133;52.862;6.602;2023-07-13T11:46:56;5.82;;;4.22;;
66327;SDS011;53133;52.862;6.602;2023-07-13T11:49:29;6.90;;;4.70;;
66327;SDS011;53133;52.862;6.602;2023-07-13T11:51:57;7.65;;;4.80;;
66327;SDS011;53133;52.862;6.602;2023-07-13T11:57:00;6.97;;;4.97;;
66327;SDS011;53133;52.862;6.602;2023-07-13T11:59:31;6.50;;;4.40;;
66327;SDS011;53133;52.862;6.602;2023-07-13T12:01:58;6.20;;;4.70;;
66327;SDS011;53133;52.862;6.602;2023-07-13T12:04:31;6.10;;;4.57;;
66327;SDS011;53133;52.862;6.602;2023-07-13T12:07:14;5.75;;;4.38;;
66327;SDS011;53133;52.862;6.602;2023-07-13T12:09:41;7.45;;;4.93;;
66327;SDS011;53133;52.862;6.602;2023-07-13T12:12:14;8.82;;;5.30;;
66327;SDS011;53133;52.862;6.602;2023-07-13T12:14:43;11.40;;;5.00;;
66327;SDS011;53133;52.862;6.602;2023-07-13T12:17:10;7.93;;;4.63;;
66327;SDS011;53133;52.862;6.602;2023-07-13T12:19:55;7.70;;;4.70;;
66327;SDS011;53133;52.862;6.602;2023-07-13T12:22:20;7.47;;;4.80;;
66327;SDS011;53133;52.862;6.602;2023-07-13T12:24:48;7.50;;;5.53;;
66327;SDS011;53133;52.862;6.602;2023-07-13T12:27:21;9.00;;;4.55;;
66327;SDS011;53133;52.862;6.602;2023-07-13T12:29:57;6.55;;;4.80;;
66327;SDS011;53133;52.862;6.602;2023-07-13T12:32:24;7.03;;;3.72;;
66327;SDS011;53133;52.862;6.602;2023-07-13T12:34:52;6.93;;;3.85;;
66327;SDS011;53133;52.862;6.602;2023-07-13T12:37:19;7.60;;;3.50;;
66327;SDS011;53133;52.862;6.602;2023-07-13T12:39:46;8.10;;;3.17;;
66327;SDS011;53133;52.862;6.602;2023-07-13T12:44:45;4.30;;;2.08;;
66327;SDS011;53133;52.862;6.602;2023-07-13T12:47:12;7.25;;;2.05;;
66327;SDS011;53133;52.862;6.602;2023-07-13T12:49:43;5.20;;;1.63;;
66327;SDS011;53133;52.862;6.602;2023-07-13T12:52:23;2.88;;;1.70;;
66327;SDS011;53133;52.862;6.602;2023-07-13T12:54:56;5.93;;;1.95;;
66327;SDS011;53133;52.862;6.602;2023-07-13T12:57:25;4.53;;;1.95;;
66327;SDS011;53133;52.862;6.602;2023-07-13T12:59:52;3.92;;;1.98;;
66327;SDS011;53133;52.862;6.602;2023-07-13T13:02:32;4.25;;;1.58;;
66327;SDS011;53133;52.862;6.602;2023-07-13T13:05:00;8.82;;;1.80;;
66327;SDS011;53133;52.862;6.602;2023-07-13T13:07:28;4.38;;;1.70;;
66327;SDS011;53133;52.862;6.602;2023-07-13T13:09:54;3.63;;;1.80;;
66327;SDS011;53133;52.862;6.602;2023-07-13T13:12:21;4.45;;;1.50;;
66327;SDS011;53133;52.862;6.602;2023-07-13T13:14:50;4.32;;;1.92;;
66327;SDS011;53133;52.862;6.602;2023-07-13T13:17:21;3.13;;;1.80;;
66327;SDS011;53133;52.862;6.602;2023-07-13T13:19:50;2.75;;;1.88;;
66327;SDS011;53133;52.862;6.602;2023-07-13T13:22:19;4.45;;;1.60;;
66327;SDS011;53133;52.862;6.602;2023-07-13T13:24:45;4.22;;;1.50;;
66327;SDS011;53133;52.862;6.602;2023-07-13T13:27:19;4.65;;;1.83;;
66327;SDS011;53133;52.862;6.602;2023-07-13T13:29:48;3.85;;;1.60;;
66327;SDS011;53133;52.862;6.602;2023-07-13T13:32:16;2.50;;;1.60;;
66327;SDS011;53133;52.862;6.602;2023-07-13T13:34:43;4.30;;;1.70;;
66327;SDS011;53133;52.862;6.602;2023-07-13T13:37:15;3.00;;;1.42;;
66327;SDS011;53133;52.862;6.602;2023-07-13T13:39:46;4.47;;;1.85;;
66327;SDS011;53133;52.862;6.602;2023-07-13T13:42:12;3.83;;;1.73;;
66327;SDS011;53133;52.862;6.602;2023-07-13T13:44:39;4.03;;;1.80;;
66327;SDS011;53133;52.862;6.602;2023-07-13T13:47:07;6.53;;;1.77;;
66327;SDS011;53133;52.862;6.602;2023-07-13T13:49:53;5.00;;;1.52;;
66327;SDS011;53133;52.862;6.602;2023-07-13T13:52:18;6.15;;;1.70;;
66327;SDS011;53133;52.862;6.602;2023-07-13T13:54:44;5.32;;;1.83;;
66327;SDS011;53133;52.862;6.602;2023-07-13T13:57:09;3.22;;;1.70;;
66327;SDS011;53133;52.862;6.602;2023-07-13T13:59:37;3.55;;;1.65;;
66327;SDS011;53133;52.862;6.602;2023-07-13T14:02:11;8.18;;;1.85;;
66327;SDS011;53133;52.862;6.602;2023-07-13T14:04:49;3.53;;;1.75;;
66327;SDS011;53133;52.862;6.602;2023-07-13T14:07:19;4.22;;;1.55;;
66327;SDS011;53133;52.862;6.602;2023-07-13T14:09:45;4.43;;;1.80;;
66327;SDS011;53133;52.862;6.602;2023-07-13T14:12:10;2.55;;;1.52;;
66327;SDS011;53133;52.862;6.602;2023-07-13T14:14:37;2.78;;;1.80;;
66327;SDS011;53133;52.862;6.602;2023-07-13T14:17:03;2.85;;;1.67;;
66327;SDS011;53133;52.862;6.602;2023-07-13T14:19:29;4.57;;;1.40;;
66327;SDS011;53133;52.862;6.602;2023-07-13T14:21:55;4.22;;;1.92;;
66327;SDS011;53133;52.862;6.602;2023-07-13T14:24:21;3.53;;;1.95;;
66327;SDS011;53133;52.862;6.602;2023-07-13T14:26:46;3.75;;;1.90;;
66327;SDS011;53133;52.862;6.602;2023-07-13T14:29:14;3.47;;;1.63;;
66327;SDS011;53133;52.862;6.602;2023-07-13T14:31:42;4.78;;;1.55;;
66327;SDS011;53133;52.862;6.602;2023-07-13T14:34:11;4.38;;;1.90;;
66327;SDS011;53133;52.862;6.602;2023-07-13T14:36:43;5.38;;;1.80;;
66327;SDS011;53133;52.862;6.602;2023-07-13T14:39:12;4.05;;;1.67;;
66327;SDS011;53133;52.862;6.602;2023-07-13T14:41:51;5.80;;;1.60;;
66327;SDS011;53133;52.862;6.602;2023-07-13T14:44:20;5.55;;;1.88;;
66327;SDS011;53133;52.862;6.602;2023-07-13T14:46:48;4.35;;;2.20;;
66327;SDS011;53133;52.862;6.602;2023-07-13T14:52:00;4.93;;;2.00;;
66327;SDS011;53133;52.862;6.602;2023-07-13T14:54:28;7.40;;;2.25;;
66327;SDS011;53133;52.862;6.602;2023-07-13T14:56:54;5.95;;;1.88;;
66327;SDS011;53133;52.862;6.602;2023-07-13T14:59:20;4.32;;;2.10;;
66327;SDS011;53133;52.862;6.602;2023-07-13T15:01:46;5.43;;;2.00;;
66327;SDS011;53133;52.862;6.602;2023-07-13T15:04:13;3.53;;;2.10;;
66327;SDS011;53133;52.862;6.602;2023-07-13T15:06:59;6.95;;;2.38;;
66327;SDS011;53133;52.862;6.602;2023-07-13T15:09:26;4.85;;;1.70;;
66327;SDS011;53133;52.862;6.602;2023-07-13T15:11:54;3.40;;;1.77;;
66327;SDS011;53133;52.862;6.602;2023-07-13T15:14:21;5.20;;;2.13;;
66327;SDS011;53133;52.862;6.602;2023-07-13T15:16:48;5.63;;;1.98;;
66327;SDS011;53133;52.862;6.602;2023-07-13T15:19:17;5.13;;;1.98;;
66327;SDS011;53133;52.862;6.602;2023-07-13T15:21:44;5.75;;;2.03;;
66327;SDS011;53133;52.862;6.602;2023-07-13T15:24:10;4.90;;;2.15;;
66327;SDS011;53133;52.862;6.602;2023-07-13T15:26:36;7.53;;;2.25;;
66327;SDS011;53133;52.862;6.602;2023-07-13T15:29:03;4.95;;;2.30;;
66327;SDS011;53133;52.862;6.602;2023-07-13T15:31:28;6.70;;;2.22;;
66327;SDS011;53133;52.862;6.602;2023-07-13T15:33:57;6.38;;;2.33;;
66327;SDS011;53133;52.862;6.602;2023-07-13T15:36:24;6.22;;;1.85;;
66327;SDS011;53133;52.862;6.602;2023-07-13T15:38:51;5.03;;;2.00;;
66327;SDS011;53133;52.862;6.602;2023-07-13T15:41:22;3.58;;;2.10;;
66327;SDS011;53133;52.862;6.602;2023-07-13T15:43:54;5.18;;;2.30;;
66327;SDS011;53133;52.862;6.602;2023-07-13T15:46:23;2.92;;;1.70;;
66327;SDS011;53133;52.862;6.602;2023-07-13T15:48:50;3.92;;;2.28;;
66327;SDS011;53133;52.862;6.602;2023-07-13T15:51:24;5.75;;;2.15;;
66327;SDS011;53133;52.862;6.602;2023-07-13T15:53:52;4.45;;;1.90;;